Time;durP1;ratioP1;P1;durP2;ratioP2;P2;SDS_P1;SDS_P2;PMS_P1;PMS_P2;Temp;Humidity;BMP_temperature;BMP_pressure;BME280_temperature;BME280_humidity;BME280_pressure;Samples;Min_cycle;Max_cycle;Signal;HPM_P1;HPM_P2
2022/11/29 00:02:11;;;;;;;12.00;9.57;;;;;;;;;;5073777;28;20207;-45
2022/11/29 00:04:37;;;;;;;11.47;9.10;;;;;;;;;;5073613;28;20208;-45
2022/11/29 00:07:03;;;;;;;12.40;9.87;;;;;;;;;;5073768;28;20203;-45
2022/11/29 00:09:29;;;;;;;10.77;9.07;;;;;;;;;;5073114;28;20265;-45
2022/11/29 00:12:13;;;;;;;10.20;9.00;;;;;;;;;;5073694;28;20389;-45
2022/11/29 00:14:40;;;;;;;13.10;9.00;;;;;;;;;;5073528;28;20599;-45
2022/11/29 00:17:07;;;;;;;12.67;9.43;;;;;;;;;;5073460;28;20232;-45
2022/11/29 00:19:34;;;;;;;10.53;8.87;;;;;;;;;;5073228;28;20278;-45
2022/11/29 00:22:00;;;;;;;10.90;8.93;;;;;;;;;;5073134;28;20214;-46
2022/11/29 00:24:26;;;;;;;12.77;9.37;;;;;;;;;;5073063;28;20200;-45
2022/11/29 00:26:52;;;;;;;12.70;9.40;;;;;;;;;;5073408;28;20187;-45
2022/11/29 00:29:18;;;;;;;10.37;8.93;;;;;;;;;;5073184;28;20249;-45
2022/11/29 00:31:44;;;;;;;12.70;9.97;;;;;;;;;;5073280;28;20204;-46
2022/11/29 00:34:12;;;;;;;11.40;10.03;;;;;;;;;;5072791;28;20298;-45
2022/11/29 00:36:38;;;;;;;12.47;9.50;;;;;;;;;;5073112;28;20247;-45
2022/11/29 00:39:05;;;;;;;10.63;9.47;;;;;;;;;;5073006;28;20202;-45
2022/11/29 00:41:31;;;;;;;11.20;9.20;;;;;;;;;;5072834;28;20230;-45
2022/11/29 00:43:57;;;;;;;10.73;9.63;;;;;;;;;;5073002;28;20278;-45
2022/11/29 00:46:24;;;;;;;12.90;10.27;;;;;;;;;;5072429;28;20241;-45
2022/11/29 00:48:50;;;;;;;13.10;9.53;;;;;;;;;;5072892;28;20227;-45
2022/11/29 00:51:17;;;;;;;11.10;9.50;;;;;;;;;;5069271;28;20235;-46
2022/11/29 00:53:43;;;;;;;13.43;9.50;;;;;;;;;;5072770;28;20200;-46
2022/11/29 00:56:09;;;;;;;12.87;10.07;;;;;;;;;;5072342;28;20234;-46
2022/11/29 00:58:36;;;;;;;11.03;9.60;;;;;;;;;;5072508;28;20253;-46
2022/11/29 01:01:02;;;;;;;10.60;8.90;;;;;;;;;;5072550;28;20207;-46
2022/11/29 01:03:28;;;;;;;11.63;9.33;;;;;;;;;;5072349;28;20650;-47
2022/11/29 01:05:59;;;;;;;10.93;9.20;;;;;;;;;;5072455;28;20673;-46
2022/11/29 01:08:27;;;;;;;12.67;9.07;;;;;;;;;;5072445;28;20219;-46
2022/11/29 01:11:00;;;;;;;12.17;9.90;;;;;;;;;;5072385;28;20203;-46
2022/11/29 01:13:26;;;;;;;12.03;9.43;;;;;;;;;;5072291;28;20242;-46
2022/11/29 01:15:54;;;;;;;12.27;9.80;;;;;;;;;;5072210;28;20269;-46
2022/11/29 01:18:20;;;;;;;13.07;9.73;;;;;;;;;;5072189;28;20202;-46
2022/11/29 01:20:54;;;;;;;10.60;9.50;;;;;;;;;;5072293;28;20286;-46
2022/11/29 01:23:20;;;;;;;11.47;9.70;;;;;;;;;;5072089;28;20203;-46
2022/11/29 01:25:54;;;;;;;12.83;9.87;;;;;;;;;;5072170;28;20348;-46
2022/11/29 01:28:20;;;;;;;12.60;9.90;;;;;;;;;;5072081;28;20714;-46
2022/11/29 01:30:46;;;;;;;12.20;10.03;;;;;;;;;;5072229;28;20200;-46
2022/11/29 01:33:13;;;;;;;11.83;10.00;;;;;;;;;;5072008;28;20229;-46
2022/11/29 01:35:39;;;;;;;13.60;10.50;;;;;;;;;;5071446;28;20227;-46
2022/11/29 01:38:05;;;;;;;11.77;9.90;;;;;;;;;;5072061;28;20191;-46
2022/11/29 01:40:31;;;;;;;11.47;9.90;;;;;;;;;;5071897;28;20256;-46
2022/11/29 01:42:58;;;;;;;13.07;10.33;;;;;;;;;;5072050;28;20199;-46
2022/11/29 01:45:25;;;;;;;10.47;9.37;;;;;;;;;;5071908;28;20223;-46
2022/11/29 01:47:52;;;;;;;12.13;9.73;;;;;;;;;;5072020;28;20199;-46
2022/11/29 01:50:19;;;;;;;12.17;9.70;;;;;;;;;;5071649;28;20793;-46
2022/11/29 01:52:45;;;;;;;12.67;9.60;;;;;;;;;;5071800;28;20658;-46
2022/11/29 01:55:11;;;;;;;11.30;9.33;;;;;;;;;;5071774;28;20223;-46
2022/11/29 01:57:39;;;;;;;13.07;10.13;;;;;;;;;;5071891;28;20206;-46
2022/11/29 02:00:08;;;;;;;11.40;9.33;;;;;;;;;;5071930;28;20202;-46
2022/11/29 02:02:36;;;;;;;12.70;9.93;;;;;;;;;;5071732;28;20209;-46
2022/11/29 02:05:02;;;;;;;12.07;10.00;;;;;;;;;;5071749;28;20203;-47
2022/11/29 02:07:28;;;;;;;12.40;9.77;;;;;;;;;;5071861;28;20551;-46
2022/11/29 02:09:54;;;;;;;12.93;10.23;;;;;;;;;;5071692;28;20223;-46
2022/11/29 02:12:25;;;;;;;12.07;10.63;;;;;;;;;;5071773;28;20249;-46
2022/11/29 02:15:04;;;;;;;11.33;10.03;;;;;;;;;;5071822;28;20270;-46
2022/11/29 02:17:34;;;;;;;12.80;9.63;;;;;;;;;;5071553;28;20229;-46
2022/11/29 02:20:18;;;;;;;10.37;9.27;;;;;;;;;;5071760;28;20211;-46
2022/11/29 02:22:48;;;;;;;10.97;9.50;;;;;;;;;;5071450;28;20661;-46
2022/11/29 02:25:23;;;;;;;13.00;9.77;;;;;;;;;;5071581;28;20192;-46
2022/11/29 02:28:07;;;;;;;12.33;10.37;;;;;;;;;;5071806;28;20245;-46
2022/11/29 02:30:48;;;;;;;13.40;10.93;;;;;;;;;;5071634;28;20219;-46
2022/11/29 02:33:27;;;;;;;12.83;10.70;;;;;;;;;;5071469;28;20373;-46
2022/11/29 02:36:05;;;;;;;14.50;10.23;;;;;;;;;;5071398;28;20231;-46
2022/11/29 02:38:46;;;;;;;14.07;10.17;;;;;;;;;;5071408;28;20257;-46
2022/11/29 02:41:21;;;;;;;12.83;9.93;;;;;;;;;;5071743;28;20583;-46
2022/11/29 02:44:07;;;;;;;12.60;10.90;;;;;;;;;;5071447;28;20641;-46
2022/11/29 02:46:42;;;;;;;11.87;10.47;;;;;;;;;;5072735;28;20187;-46
2022/11/29 02:49:14;;;;;;;12.97;10.13;;;;;;;;;;5075005;28;20237;-47
2022/11/29 02:51:42;;;;;;;15.27;10.37;;;;;;;;;;5075048;28;20207;-46
2022/11/29 02:54:15;;;;;;;11.70;10.20;;;;;;;;;;5074938;28;20685;-46
2022/11/29 02:56:44;;;;;;;13.47;11.00;;;;;;;;;;5075158;28;20623;-46
2022/11/29 02:59:13;;;;;;;12.00;10.10;;;;;;;;;;5074960;28;20198;-46
2022/11/29 03:01:44;;;;;;;12.00;10.20;;;;;;;;;;5074878;28;20195;-46
2022/11/29 03:04:14;;;;;;;11.83;10.47;;;;;;;;;;5074876;28;20215;-46
2022/11/29 03:06:46;;;;;;;11.70;9.87;;;;;;;;;;5074739;28;20577;-46
2022/11/29 03:09:16;;;;;;;11.43;10.23;;;;;;;;;;5074723;28;20223;-46
2022/11/29 03:11:45;;;;;;;12.60;9.63;;;;;;;;;;5074626;28;20610;-46
2022/11/29 03:14:14;;;;;;;15.63;10.87;;;;;;;;;;5074735;28;20192;-46
2022/11/29 03:16:44;;;;;;;12.33;10.17;;;;;;;;;;5074487;28;20511;-46
2022/11/29 03:19:21;;;;;;;11.17;9.43;;;;;;;;;;5074697;28;20206;-47
2022/11/29 03:21:51;;;;;;;11.77;10.23;;;;;;;;;;5074648;28;20260;-46
2022/11/29 03:24:19;;;;;;;14.40;10.73;;;;;;;;;;5074452;28;20200;-47
2022/11/29 03:26:47;;;;;;;12.50;10.17;;;;;;;;;;5074403;28;20249;-46
2022/11/29 03:29:18;;;;;;;14.57;10.47;;;;;;;;;;5074400;28;20200;-46
2022/11/29 03:31:45;;;;;;;12.57;10.90;;;;;;;;;;5074415;28;20222;-46
2022/11/29 03:34:16;;;;;;;13.13;10.20;;;;;;;;;;5074317;28;20191;-46
2022/11/29 03:36:46;;;;;;;14.43;10.67;;;;;;;;;;5074161;28;20617;-46
2022/11/29 03:39:16;;;;;;;12.13;10.20;;;;;;;;;;5074220;28;20234;-46
2022/11/29 03:41:43;;;;;;;12.53;10.50;;;;;;;;;;5074168;28;20677;-46
2022/11/29 03:44:11;;;;;;;13.33;10.63;;;;;;;;;;5074183;28;20286;-46
2022/11/29 03:46:41;;;;;;;12.30;10.77;;;;;;;;;;5074177;28;20227;-46
2022/11/29 03:49:09;;;;;;;14.37;11.50;;;;;;;;;;5074118;28;20195;-45
2022/11/29 03:51:41;;;;;;;13.47;10.93;;;;;;;;;;5074051;28;20206;-47
2022/11/29 03:54:10;;;;;;;15.70;11.27;;;;;;;;;;5074033;28;20196;-46
2022/11/29 03:56:37;;;;;;;13.77;11.37;;;;;;;;;;5073655;28;20599;-45
2022/11/29 03:59:10;;;;;;;15.33;10.93;;;;;;;;;;5073685;28;20275;-46
2022/11/29 04:01:55;;;;;;;13.73;11.20;;;;;;;;;;5074044;28;20200;-46
2022/11/29 04:04:36;;;;;;;18.90;11.63;;;;;;;;;;5073802;28;20233;-46
2022/11/29 04:07:05;;;;;;;13.27;11.30;;;;;;;;;;5071408;28;20227;-46
2022/11/29 04:09:41;;;;;;;14.03;11.23;;;;;;;;;;5073452;28;20220;-46
2022/11/29 04:12:26;;;;;;;11.33;9.73;;;;;;;;;;5073586;28;20676;-45
2022/11/29 04:15:07;;;;;;;13.97;10.80;;;;;;;;;;5073682;28;20191;-46
2022/11/29 04:17:48;;;;;;;11.87;10.40;;;;;;;;;;5073411;28;20234;-46
2022/11/29 04:20:25;;;;;;;13.60;10.77;;;;;;;;;;5073543;28;20196;-45
2022/11/29 04:23:17;;;;;;;13.40;11.00;;;;;;;;;;5073591;28;20500;-45
2022/11/29 04:26:11;;;;;;;12.87;10.27;;;;;;;;;;5073276;28;20188;-46
2022/11/29 04:29:02;;;;;;;13.60;11.40;;;;;;;;;;5073114;28;20215;-45
2022/11/29 04:31:36;;;;;;;16.17;11.30;;;;;;;;;;5073210;28;20199;-45
2022/11/29 04:34:20;;;;;;;15.07;11.00;;;;;;;;;;5073168;28;20748;-46
2022/11/29 04:37:04;;;;;;;12.40;10.30;;;;;;;;;;5073146;28;20234;-45
2022/11/29 04:39:50;;;;;;;11.03;9.83;;;;;;;;;;5073076;28;20248;-45
2022/11/29 04:42:26;;;;;;;12.43;10.07;;;;;;;;;;5073063;28;20205;-45
2022/11/29 04:44:56;;;;;;;12.50;9.97;;;;;;;;;;5073164;28;20272;-45
2022/11/29 04:47:40;;;;;;;12.57;11.27;;;;;;;;;;5072937;28;20646;-45
2022/11/29 04:50:13;;;;;;;13.73;11.17;;;;;;;;;;5072771;28;20235;-45
2022/11/29 04:52:47;;;;;;;13.43;10.77;;;;;;;;;;5072690;28;20253;-46
2022/11/29 04:55:18;;;;;;;15.57;10.80;;;;;;;;;;5072750;28;20197;-46
2022/11/29 04:57:48;;;;;;;11.83;10.23;;;;;;;;;;5072756;28;20292;-47
2022/11/29 05:00:16;;;;;;;12.73;10.70;;;;;;;;;;5072599;28;20211;-46
2022/11/29 05:02:47;;;;;;;13.07;10.70;;;;;;;;;;5072649;28;20198;-46
2022/11/29 05:05:19;;;;;;;13.30;11.07;;;;;;;;;;5072704;28;20210;-46
2022/11/29 05:07:48;;;;;;;13.80;11.07;;;;;;;;;;5072393;28;20200;-46
2022/11/29 05:10:20;;;;;;;12.87;10.63;;;;;;;;;;5071676;28;20225;-46
2022/11/29 05:12:51;;;;;;;13.50;10.83;;;;;;;;;;5072408;28;20202;-46
2022/11/29 05:15:31;;;;;;;13.93;10.93;;;;;;;;;;5072475;28;20200;-46
2022/11/29 05:18:03;;;;;;;14.13;11.10;;;;;;;;;;5072432;28;20196;-46
2022/11/29 05:20:36;;;;;;;14.13;11.13;;;;;;;;;;5072261;28;20199;-46
2022/11/29 05:23:11;;;;;;;12.37;10.93;;;;;;;;;;5072273;28;20666;-47
2022/11/29 05:25:40;;;;;;;15.57;13.90;;;;;;;;;;5072217;28;20609;-47
2022/11/29 05:28:10;;;;;;;13.70;12.20;;;;;;;;;;5072264;28;20199;-46
2022/11/29 05:30:48;;;;;;;13.20;11.83;;;;;;;;;;5072096;28;20230;-46
2022/11/29 05:33:20;;;;;;;13.87;11.27;;;;;;;;;;5072342;28;20686;-46
2022/11/29 05:35:51;;;;;;;14.63;12.23;;;;;;;;;;5072085;28;20668;-46
2022/11/29 05:38:28;;;;;;;15.20;12.17;;;;;;;;;;5072121;28;20811;-46
2022/11/29 05:41:00;;;;;;;15.17;12.03;;;;;;;;;;5071975;28;20198;-46
2022/11/29 05:43:37;;;;;;;13.20;11.53;;;;;;;;;;5072028;28;20221;-46
2022/11/29 05:46:07;;;;;;;15.07;12.67;;;;;;;;;;5072093;28;20286;-46
2022/11/29 05:48:37;;;;;;;15.37;12.90;;;;;;;;;;5071845;28;20195;-47
2022/11/29 05:51:10;;;;;;;15.13;12.97;;;;;;;;;;5071787;28;20235;-46
2022/11/29 05:53:41;;;;;;;16.20;13.90;;;;;;;;;;5071848;28;20657;-46
2022/11/29 05:56:10;;;;;;;15.37;13.47;;;;;;;;;;5071880;28;20276;-46
2022/11/29 05:58:41;;;;;;;16.30;12.63;;;;;;;;;;5071794;28;20199;-46
2022/11/29 06:01:13;;;;;;;13.03;11.33;;;;;;;;;;5071818;28;20450;-46
2022/11/29 06:03:44;;;;;;;14.33;12.63;;;;;;;;;;5071721;28;20195;-46
2022/11/29 06:06:13;;;;;;;17.37;14.50;;;;;;;;;;5071865;28;20195;-46
2022/11/29 06:08:42;;;;;;;16.00;12.50;;;;;;;;;;5071407;28;20216;-46
2022/11/29 06:11:13;;;;;;;21.20;18.00;;;;;;;;;;5071547;28;20203;-47
2022/11/29 06:13:49;;;;;;;19.47;16.77;;;;;;;;;;5071575;28;20714;-46
2022/11/29 06:16:24;;;;;;;19.87;15.13;;;;;;;;;;5071467;28;20250;-46
2022/11/29 06:19:00;;;;;;;16.13;13.70;;;;;;;;;;5071466;28;20673;-46
2022/11/29 06:21:28;;;;;;;17.73;14.07;;;;;;;;;;5074119;28;20205;-46
2022/11/29 06:24:05;;;;;;;16.10;14.07;;;;;;;;;;5075474;28;20195;-47
2022/11/29 06:26:43;;;;;;;15.23;12.70;;;;;;;;;;5075362;28;20580;-45
2022/11/29 06:29:22;;;;;;;17.40;13.83;;;;;;;;;;5075587;28;20290;-47
2022/11/29 06:31:51;;;;;;;14.40;12.83;;;;;;;;;;5075247;28;20231;-48
2022/11/29 06:34:21;;;;;;;15.30;12.17;;;;;;;;;;5075490;28;20233;-47
2022/11/29 06:36:50;;;;;;;14.67;11.67;;;;;;;;;;5075102;28;20621;-46
2022/11/29 06:39:16;;;;;;;17.00;12.77;;;;;;;;;;5075267;28;20269;-46
2022/11/29 06:41:42;;;;;;;17.93;14.83;;;;;;;;;;5075187;28;20198;-46
2022/11/29 06:44:09;;;;;;;20.67;16.20;;;;;;;;;;5075386;28;20207;-45
2022/11/29 06:46:46;;;;;;;16.97;15.13;;;;;;;;;;5075095;28;20196;-47
2022/11/29 06:49:14;;;;;;;15.63;13.90;;;;;;;;;;5074659;28;20605;-47
2022/11/29 06:51:43;;;;;;;21.00;15.10;;;;;;;;;;5075117;28;20290;-46
2022/11/29 06:54:16;;;;;;;15.93;14.20;;;;;;;;;;5075109;28;20278;-45
2022/11/29 06:56:44;;;;;;;17.43;15.03;;;;;;;;;;5075116;28;20222;-46
2022/11/29 06:59:16;;;;;;;14.90;12.03;;;;;;;;;;5074995;28;20243;-46
2022/11/29 07:01:47;;;;;;;16.40;13.87;;;;;;;;;;5074762;28;20294;-47
2022/11/29 07:04:24;;;;;;;18.50;14.60;;;;;;;;;;5074966;28;20341;-46
2022/11/29 07:06:51;;;;;;;20.00;15.00;;;;;;;;;;5074795;28;20218;-47
2022/11/29 07:09:18;;;;;;;16.57;13.37;;;;;;;;;;5074673;28;20223;-43
2022/11/29 07:11:45;;;;;;;14.30;12.73;;;;;;;;;;5074613;28;20662;-44
2022/11/29 07:14:11;;;;;;;16.80;13.63;;;;;;;;;;5074781;28;20203;-44
2022/11/29 07:16:41;;;;;;;14.27;12.77;;;;;;;;;;5074529;28;20629;-44
2022/11/29 07:19:17;;;;;;;15.00;13.17;;;;;;;;;;5074543;28;20283;-44
2022/11/29 07:21:47;;;;;;;17.13;13.40;;;;;;;;;;5074493;28;20731;-44
2022/11/29 07:24:19;;;;;;;16.17;13.77;;;;;;;;;;5074513;28;20195;-44
2022/11/29 07:26:50;;;;;;;18.23;15.07;;;;;;;;;;5074411;28;20196;-44
2022/11/29 07:29:22;;;;;;;17.77;14.13;;;;;;;;;;5074546;28;20196;-44
2022/11/29 07:31:56;;;;;;;17.60;14.73;;;;;;;;;;5073809;28;20209;-44
2022/11/29 07:34:25;;;;;;;17.93;14.93;;;;;;;;;;5074347;28;20196;-43
2022/11/29 07:36:58;;;;;;;17.57;13.83;;;;;;;;;;5074086;28;20701;-44
2022/11/29 07:39:30;;;;;;;17.23;13.97;;;;;;;;;;5074146;28;20283;-44
2022/11/29 07:41:59;;;;;;;18.67;13.87;;;;;;;;;;5074216;28;20233;-43
2022/11/29 07:44:28;;;;;;;14.20;12.13;;;;;;;;;;5073814;28;20623;-44
2022/11/29 07:46:54;;;;;;;14.90;13.33;;;;;;;;;;5074100;28;20245;-43
2022/11/29 07:49:20;;;;;;;15.47;13.20;;;;;;;;;;5073734;28;20555;-44
2022/11/29 07:51:47;;;;;;;16.10;13.13;;;;;;;;;;5073917;28;20203;-44
2022/11/29 07:54:16;;;;;;;15.93;13.47;;;;;;;;;;5074058;28;20210;-43
2022/11/29 07:56:42;;;;;;;13.77;12.27;;;;;;;;;;5073733;28;20705;-43
2022/11/29 07:59:11;;;;;;;16.83;14.40;;;;;;;;;;5073991;28;20211;-44
2022/11/29 08:01:37;;;;;;;15.23;12.83;;;;;;;;;;5073731;28;20200;-44
2022/11/29 08:04:03;;;;;;;17.23;13.73;;;;;;;;;;5073931;28;20218;-43
2022/11/29 08:06:29;;;;;;;17.73;13.63;;;;;;;;;;5073687;28;20191;-43
2022/11/29 08:08:58;;;;;;;16.33;13.63;;;;;;;;;;5073664;28;20265;-43
2022/11/29 08:11:24;;;;;;;19.70;16.37;;;;;;;;;;5073843;28;20202;-43
2022/11/29 08:13:55;;;;;;;20.13;14.83;;;;;;;;;;5073571;28;20195;-43
2022/11/29 08:16:21;;;;;;;18.77;16.23;;;;;;;;;;5073581;28;20224;-43
2022/11/29 08:18:47;;;;;;;18.50;15.33;;;;;;;;;;5073619;28;20255;-43
2022/11/29 08:21:16;;;;;;;18.93;14.23;;;;;;;;;;5073089;28;20249;-43
2022/11/29 08:23:42;;;;;;;16.93;14.37;;;;;;;;;;5073072;28;20290;-43
2022/11/29 08:26:10;;;;;;;21.93;15.00;;;;;;;;;;5073312;28;20606;-43
2022/11/29 08:28:36;;;;;;;16.17;13.87;;;;;;;;;;5073019;28;20788;-43
2022/11/29 08:31:03;;;;;;;16.10;13.37;;;;;;;;;;5073135;28;20235;-43
2022/11/29 08:33:29;;;;;;;16.00;13.67;;;;;;;;;;5072871;28;20199;-44
2022/11/29 08:35:55;;;;;;;14.33;12.67;;;;;;;;;;5073020;28;20199;-43
2022/11/29 08:38:21;;;;;;;18.60;13.50;;;;;;;;;;5072876;28;20611;-43
2022/11/29 08:40:48;;;;;;;21.13;13.43;;;;;;;;;;5072912;28;20263;-43
2022/11/29 08:43:15;;;;;;;16.13;13.47;;;;;;;;;;5072413;28;20195;-44
2022/11/29 08:45:41;;;;;;;16.93;13.57;;;;;;;;;;5072224;28;20257;-43
2022/11/29 08:48:07;;;;;;;15.33;13.07;;;;;;;;;;5072909;28;20226;-43
2022/11/29 08:50:33;;;;;;;17.10;13.70;;;;;;;;;;5072481;28;20318;-44
2022/11/29 08:55:45;;;;;;;19.00;14.20;;;;;;;;;;5072550;28;20673;-46
2022/11/29 08:58:12;;;;;;;17.73;14.53;;;;;;;;;;5072727;28;20238;-44
2022/11/29 09:00:39;;;;;;;18.90;14.60;;;;;;;;;;5072528;28;20254;-43
2022/11/29 09:05:52;;;;;;;21.43;14.73;;;;;;;;;;5072583;28;20195;-45
2022/11/29 09:08:18;;;;;;;17.00;14.37;;;;;;;;;;5072344;28;20303;-44
2022/11/29 09:10:44;;;;;;;16.07;13.47;;;;;;;;;;5072231;28;20191;-55
2022/11/29 09:13:10;;;;;;;16.67;13.70;;;;;;;;;;5072576;28;20211;-44
2022/11/29 09:15:36;;;;;;;21.70;15.03;;;;;;;;;;5072436;28;20286;-42
2022/11/29 09:18:04;;;;;;;16.17;13.60;;;;;;;;;;5072168;28;20589;-43
2022/11/29 09:20:31;;;;;;;17.10;14.23;;;;;;;;;;5072298;28;20207;-43
2022/11/29 09:22:57;;;;;;;17.53;14.13;;;;;;;;;;5072053;28;20263;-42
2022/11/29 09:25:23;;;;;;;19.03;14.53;;;;;;;;;;5071967;28;20733;-43
2022/11/29 09:27:50;;;;;;;20.77;14.67;;;;;;;;;;5072080;28;20650;-42
2022/11/29 09:30:16;;;;;;;18.37;15.07;;;;;;;;;;5072018;28;20203;-43
2022/11/29 09:32:44;;;;;;;18.50;14.33;;;;;;;;;;5071881;28;20218;-42
2022/11/29 09:35:12;;;;;;;22.77;16.60;;;;;;;;;;5072022;28;20207;-42
2022/11/29 09:37:41;;;;;;;18.73;15.23;;;;;;;;;;5071746;28;20219;-43
2022/11/29 09:40:14;;;;;;;17.90;15.00;;;;;;;;;;5071916;28;20295;-43
2022/11/29 09:42:44;;;;;;;19.73;15.23;;;;;;;;;;5071802;28;20192;-43
2022/11/29 09:45:13;;;;;;;20.20;14.37;;;;;;;;;;5071860;28;20689;-43
2022/11/29 09:47:54;;;;;;;18.50;15.03;;;;;;;;;;5071654;28;20187;-43
2022/11/29 09:50:25;;;;;;;18.03;14.17;;;;;;;;;;5071755;28;20670;-43
2022/11/29 09:52:52;;;;;;;19.50;15.43;;;;;;;;;;5071910;28;20207;-43
2022/11/29 09:55:30;;;;;;;20.53;15.60;;;;;;;;;;5071362;28;20211;-43
2022/11/29 09:57:57;;;;;;;21.57;17.00;;;;;;;;;;5071616;28;20693;-43
2022/11/29 10:00:24;;;;;;;17.70;15.27;;;;;;;;;;5071670;28;20199;-43
2022/11/29 10:02:53;;;;;;;19.00;15.93;;;;;;;;;;5071469;28;20222;-43
2022/11/29 10:05:21;;;;;;;18.87;15.17;;;;;;;;;;5071525;28;20199;-43
2022/11/29 10:07:52;;;;;;;21.20;16.70;;;;;;;;;;5071365;28;20195;-44
2022/11/29 10:10:22;;;;;;;21.17;16.80;;;;;;;;;;5071717;28;20231;-43
2022/11/29 10:12:51;;;;;;;21.93;17.03;;;;;;;;;;5071670;28;20279;-43
2022/11/29 10:15:19;;;;;;;22.03;18.03;;;;;;;;;;5071683;28;20578;-43
2022/11/29 10:17:49;;;;;;;19.43;16.67;;;;;;;;;;5071511;28;20232;-43
2022/11/29 10:20:16;;;;;;;24.33;18.60;;;;;;;;;;5071576;28;20650;-43
2022/11/29 10:22:44;;;;;;;22.33;17.97;;;;;;;;;;5071428;28;20657;-43
2022/11/29 10:25:16;;;;;;;20.50;16.90;;;;;;;;;;5071620;28;20223;-43
2022/11/29 10:27:42;;;;;;;21.70;18.13;;;;;;;;;;5071536;28;20199;-43
2022/11/29 10:30:12;;;;;;;20.33;17.13;;;;;;;;;;5071388;28;20199;-43
2022/11/29 10:32:39;;;;;;;19.17;16.40;;;;;;;;;;5067744;28;20713;-43
2022/11/29 10:35:11;;;;;;;21.67;16.90;;;;;;;;;;5071277;28;20290;-43
2022/11/29 10:37:37;;;;;;;19.27;17.27;;;;;;;;;;5070634;28;20226;-43
2022/11/29 10:40:06;;;;;;;18.90;16.90;;;;;;;;;;5071263;28;20231;-43
2022/11/29 10:42:51;;;;;;;19.30;17.13;;;;;;;;;;5071137;28;20214;-43
2022/11/29 10:45:19;;;;;;;18.73;16.23;;;;;;;;;;5071123;28;20683;-44
2022/11/29 10:47:48;;;;;;;21.47;16.63;;;;;;;;;;5071029;28;20202;-44
2022/11/29 10:50:17;;;;;;;21.60;16.97;;;;;;;;;;5069834;28;20711;-44
2022/11/29 10:52:43;;;;;;;22.90;17.53;;;;;;;;;;5070979;28;20218;-44
2022/11/29 10:55:12;;;;;;;22.37;17.97;;;;;;;;;;5070910;28;20594;-44
2022/11/29 10:57:59;;;;;;;21.73;18.63;;;;;;;;;;5070844;28;20223;-44
2022/11/29 11:00:26;;;;;;;21.83;17.80;;;;;;;;;;5070630;28;20211;-44
2022/11/29 11:02:52;;;;;;;21.07;18.33;;;;;;;;;;5071114;28;20250;-44
2022/11/29 11:05:25;;;;;;;22.37;18.73;;;;;;;;;;5071328;28;20204;-44
2022/11/29 11:07:56;;;;;;;23.40;18.27;;;;;;;;;;5072673;28;20378;-44
2022/11/29 11:10:25;;;;;;;23.33;18.10;;;;;;;;;;5075333;28;20204;-43
2022/11/29 11:13:01;;;;;;;21.87;19.43;;;;;;;;;;5074733;28;20203;-43
2022/11/29 11:15:28;;;;;;;22.20;19.47;;;;;;;;;;5074738;28;20191;-44
2022/11/29 11:17:56;;;;;;;26.17;19.67;;;;;;;;;;5074604;28;20219;-44
2022/11/29 11:20:22;;;;;;;28.87;19.47;;;;;;;;;;5074572;28;20247;-44
2022/11/29 11:22:55;;;;;;;23.37;19.20;;;;;;;;;;5074358;28;20210;-44
2022/11/29 11:25:25;;;;;;;22.47;19.33;;;;;;;;;;5074602;28;20208;-44
2022/11/29 11:27:51;;;;;;;24.80;19.90;;;;;;;;;;5074370;28;20633;-43
2022/11/29 11:30:20;;;;;;;26.27;19.57;;;;;;;;;;5074665;28;20199;-43
2022/11/29 11:33:01;;;;;;;25.73;19.37;;;;;;;;;;5074193;28;20235;-44
2022/11/29 11:35:27;;;;;;;30.77;21.00;;;;;;;;;;5074135;28;20720;-44
2022/11/29 11:37:55;;;;;;;26.30;20.60;;;;;;;;;;5074104;28;20227;-43
2022/11/29 11:40:25;;;;;;;28.93;21.80;;;;;;;;;;5074314;28;20203;-43
2022/11/29 11:42:52;;;;;;;27.23;21.70;;;;;;;;;;5074110;28;20210;-43
2022/11/29 11:45:37;;;;;;;25.23;19.77;;;;;;;;;;5074161;28;20199;-44
2022/11/29 11:48:11;;;;;;;25.23;20.80;;;;;;;;;;5074185;28;20199;-43
2022/11/29 11:50:41;;;;;;;21.83;19.27;;;;;;;;;;5073844;28;20740;-43
2022/11/29 11:53:18;;;;;;;23.03;19.23;;;;;;;;;;5074109;28;20196;-43
2022/11/29 11:55:52;;;;;;;23.93;19.47;;;;;;;;;;5073838;28;20202;-43
2022/11/29 11:58:21;;;;;;;26.00;20.37;;;;;;;;;;5073898;28;20235;-44
2022/11/29 12:00:48;;;;;;;26.60;20.30;;;;;;;;;;5073809;28;20203;-43
2022/11/29 12:03:24;;;;;;;25.73;20.17;;;;;;;;;;5073772;28;20199;-43
2022/11/29 12:05:52;;;;;;;28.03;21.53;;;;;;;;;;5073586;28;20207;-44
2022/11/29 12:08:18;;;;;;;29.33;21.03;;;;;;;;;;5073637;28;20243;-44
2022/11/29 12:10:45;;;;;;;30.63;21.47;;;;;;;;;;5073630;28;20187;-44
2022/11/29 12:13:15;;;;;;;32.57;22.53;;;;;;;;;;5073599;28;20592;-44
2022/11/29 12:15:43;;;;;;;27.87;20.37;;;;;;;;;;5073514;28;20202;-44
2022/11/29 12:18:11;;;;;;;30.73;22.10;;;;;;;;;;5073187;28;20231;-44
2022/11/29 12:20:42;;;;;;;28.97;21.37;;;;;;;;;;5073380;28;20282;-44
2022/11/29 12:23:22;;;;;;;29.67;20.97;;;;;;;;;;5073343;28;20199;-43
2022/11/29 12:25:50;;;;;;;28.53;21.43;;;;;;;;;;5073340;28;20207;-43
2022/11/29 12:28:18;;;;;;;32.63;23.03;;;;;;;;;;5073227;28;20619;-44
2022/11/29 12:30:47;;;;;;;30.53;22.30;;;;;;;;;;5073190;28;20199;-43
2022/11/29 12:33:21;;;;;;;32.87;23.30;;;;;;;;;;5072952;28;20199;-44
2022/11/29 12:36:08;;;;;;;28.77;22.60;;;;;;;;;;5073116;28;20264;-45
2022/11/29 12:38:43;;;;;;;30.70;23.20;;;;;;;;;;5072925;28;20206;-45
2022/11/29 12:41:18;;;;;;;32.40;23.83;;;;;;;;;;5073323;28;20661;-45
2022/11/29 12:43:49;;;;;;;32.33;23.83;;;;;;;;;;5073036;28;20203;-44
2022/11/29 12:46:20;;;;;;;30.50;22.80;;;;;;;;;;5073198;28;20192;-45
2022/11/29 12:48:51;;;;;;;32.47;23.90;;;;;;;;;;5072851;28;20191;-44
2022/11/29 12:51:22;;;;;;;40.00;26.50;;;;;;;;;;5072704;28;20280;-44
2022/11/29 12:53:58;;;;;;;31.10;23.83;;;;;;;;;;5072699;28;20199;-45
2022/11/29 12:56:29;;;;;;;36.40;26.43;;;;;;;;;;5072787;28;20191;-45
2022/11/29 12:59:05;;;;;;;37.53;26.70;;;;;;;;;;5072642;28;20564;-45
2022/11/29 13:01:36;;;;;;;33.10;24.37;;;;;;;;;;5072674;28;20223;-44
2022/11/29 13:04:08;;;;;;;35.33;24.90;;;;;;;;;;5072910;28;20198;-45
2022/11/29 13:06:41;;;;;;;30.83;23.83;;;;;;;;;;5072506;28;20275;-45
2022/11/29 13:09:17;;;;;;;29.23;23.70;;;;;;;;;;5072536;28;20231;-45
2022/11/29 13:11:48;;;;;;;33.43;25.83;;;;;;;;;;5072485;28;20223;-44
2022/11/29 13:14:17;;;;;;;30.80;24.87;;;;;;;;;;5072471;28;20653;-44
2022/11/29 13:16:49;;;;;;;30.87;24.00;;;;;;;;;;5072334;28;20227;-45
2022/11/29 13:19:18;;;;;;;33.80;25.93;;;;;;;;;;5072485;28;20210;-45
2022/11/29 13:21:51;;;;;;;33.73;24.87;;;;;;;;;;5072191;28;20231;-44
2022/11/29 13:24:22;;;;;;;32.10;24.87;;;;;;;;;;5072404;28;20247;-45
2022/11/29 13:26:49;;;;;;;29.33;22.70;;;;;;;;;;5072234;28;20217;-45
2022/11/29 13:29:16;;;;;;;34.57;24.63;;;;;;;;;;5072336;28;20261;-43
2022/11/29 13:31:43;;;;;;;31.97;24.23;;;;;;;;;;5071542;28;20662;-43
2022/11/29 13:34:12;;;;;;;35.37;25.23;;;;;;;;;;5072180;28;20290;-44
2022/11/29 13:36:45;;;;;;;32.30;23.03;;;;;;;;;;5071984;28;20230;-44
2022/11/29 13:39:18;;;;;;;31.03;24.40;;;;;;;;;;5072227;28;20204;-44
2022/11/29 13:41:47;;;;;;;30.80;23.80;;;;;;;;;;5071974;28;20665;-43
2022/11/29 13:44:16;;;;;;;31.23;24.10;;;;;;;;;;5072036;28;20195;-43
2022/11/29 13:46:46;;;;;;;36.70;25.47;;;;;;;;;;5071753;28;20210;-43
2022/11/29 13:49:19;;;;;;;35.20;24.87;;;;;;;;;;5071905;28;20199;-42
2022/11/29 13:51:45;;;;;;;34.87;24.10;;;;;;;;;;5071797;28;20788;-43
2022/11/29 13:54:27;;;;;;;32.60;23.40;;;;;;;;;;5071950;28;20253;-43
2022/11/29 13:57:01;;;;;;;31.80;23.43;;;;;;;;;;5071788;28;20301;-43
2022/11/29 13:59:29;;;;;;;34.43;24.57;;;;;;;;;;5071916;28;20199;-42
2022/11/29 14:01:57;;;;;;;31.97;23.50;;;;;;;;;;5071580;28;20199;-42
2022/11/29 14:04:28;;;;;;;30.00;22.63;;;;;;;;;;5062402;28;20203;-42
2022/11/29 14:07:05;;;;;;;30.07;22.27;;;;;;;;;;5071052;28;20317;-43
2022/11/29 14:09:39;;;;;;;36.47;24.67;;;;;;;;;;5071314;28;20230;-43
2022/11/29 14:12:17;;;;;;;37.17;24.73;;;;;;;;;;5071260;28;20227;-43
2022/11/29 14:14:48;;;;;;;35.97;24.60;;;;;;;;;;5070774;28;20191;-41
2022/11/29 14:17:29;;;;;;;28.87;22.80;;;;;;;;;;5051071;28;20251;-42
2022/11/29 14:20:22;;;;;;;32.47;22.30;;;;;;;;;;5051182;28;20207;-43
2022/11/29 14:23:03;;;;;;;31.37;23.70;;;;;;;;;;5061418;28;20293;-42
2022/11/29 14:25:31;;;;;;;30.80;22.40;;;;;;;;;;5070994;28;20195;-43
2022/11/29 14:27:59;;;;;;;33.17;23.93;;;;;;;;;;5071285;28;20291;-42
2022/11/29 14:30:43;;;;;;;33.30;22.33;;;;;;;;;;5071009;28;20603;-42
2022/11/29 14:33:13;;;;;;;32.40;22.60;;;;;;;;;;5057175;28;20555;-43
2022/11/29 14:35:41;;;;;;;31.07;22.33;;;;;;;;;;5070796;28;20195;-44
2022/11/29 14:38:12;;;;;;;31.77;22.60;;;;;;;;;;5068820;28;20290;-43
2022/11/29 14:40:45;;;;;;;31.70;22.37;;;;;;;;;;5070677;28;20630;-43
2022/11/29 14:43:15;;;;;;;31.47;22.77;;;;;;;;;;5074609;28;20211;-44
2022/11/29 14:45:41;;;;;;;29.43;22.83;;;;;;;;;;5074511;28;20204;-43